Time;durP1;ratioP1;P1;durP2;ratioP2;P2;SDS_P1;SDS_P2;PMS_P1;PMS_P2;Temp;Humidity;BMP_temperature;BMP_pressure;BME280_temperature;BME280_humidity;BME280_pressure;Samples;Min_cycle;Max_cycle;Signal;HPM_P1;HPM_P2
2022/03/26 00:00:08;;;;;;;32.22;19.52;;;;;;;6.28;100.00;102306.19;4906758;29;20070;-72
2022/03/26 00:02:54;;;;;;;31.73;19.45;;;;;;;5.88;100.00;102306.00;4919967;29;20449;-74
2022/03/26 00:05:41;;;;;;;32.15;19.88;;;;;;;5.75;100.00;102301.28;4920542;29;20044;-73
2022/03/26 00:08:27;;;;;;;32.35;19.45;;;;;;;5.69;100.00;102304.59;4919930;29;20379;-73
2022/03/26 00:11:12;;;;;;;33.13;19.35;;;;;;;5.51;100.00;102303.19;4919831;29;20424;-74
2022/03/26 00:13:58;;;;;;;36.33;19.65;;;;;;;5.63;100.00;102298.34;4919373;29;20473;-74
2022/03/26 00:16:44;;;;;;;31.10;18.20;;;;;;;5.93;100.00;102301.78;4906339;29;20054;-75
2022/03/26 00:19:30;;;;;;;33.53;19.63;;;;;;;5.89;100.00;102308.63;4919825;29;20103;-74
2022/03/26 00:22:15;;;;;;;29.38;18.80;;;;;;;5.96;100.00;102301.88;4920089;29;20044;-73
2022/03/26 00:25:02;;;;;;;28.73;18.58;;;;;;;5.74;100.00;102304.72;4920551;29;20468;-73
2022/03/26 00:27:49;;;;;;;31.25;19.05;;;;;;;6.07;100.00;102303.03;4919967;29;20438;-73
2022/03/26 00:30:35;;;;;;;34.05;18.83;;;;;;;6.23;100.00;102298.25;4919660;29;20049;-72
2022/03/26 00:33:20;;;;;;;31.52;18.52;;;;;;;5.67;100.00;102295.88;4905242;29;20032;-73
2022/03/26 00:36:07;;;;;;;28.40;17.80;;;;;;;5.57;100.00;102298.16;4919694;29;20374;-73
2022/03/26 00:38:53;;;;;;;29.55;17.58;;;;;;;6.01;100.00;102301.16;4918395;29;20021;-74
2022/03/26 00:41:38;;;;;;;28.20;17.58;;;;;;;5.82;100.00;102300.66;4919029;29;20024;-73
2022/03/26 00:44:25;;;;;;;30.70;18.60;;;;;;;5.80;100.00;102297.06;4919660;29;20063;-74
2022/03/26 00:47:10;;;;;;;31.42;18.55;;;;;;;5.72;100.00;102299.47;4905695;29;20020;-73
2022/03/26 00:49:56;;;;;;;31.23;19.15;;;;;;;5.50;100.00;102291.06;4905920;29;20043;-73
2022/03/26 00:52:42;;;;;;;30.73;18.58;;;;;;;5.69;100.00;102298.50;4919240;29;20020;-74
2022/03/26 00:55:28;;;;;;;30.45;18.50;;;;;;;5.21;100.00;102295.41;4919668;29;20028;-73
2022/03/26 00:58:13;;;;;;;31.90;19.17;;;;;;;5.13;100.00;102292.59;4919382;29;20028;-73
2022/03/26 01:00:59;;;;;;;30.02;18.13;;;;;;;4.71;100.00;102306.84;4919578;29;20036;-73
2022/03/26 01:03:45;;;;;;;34.13;19.00;;;;;;;5.03;100.00;102311.31;4918830;29;20024;-73
2022/03/26 01:06:31;;;;;;;30.88;19.38;;;;;;;5.50;100.00;102309.25;4919101;29;20110;-73
2022/03/26 01:09:17;;;;;;;31.52;18.05;;;;;;;5.53;100.00;102314.50;4919530;29;20039;-74
2022/03/26 01:12:03;;;;;;;28.63;17.48;;;;;;;5.08;100.00;102322.75;4919189;29;20039;-74
2022/03/26 01:14:50;;;;;;;28.77;17.92;;;;;;;5.42;100.00;102321.13;4918536;29;20099;-74
2022/03/26 01:17:36;;;;;;;27.38;16.17;;;;;;;5.55;100.00;102321.53;4919727;29;20040;-73
2022/03/26 01:20:22;;;;;;;27.13;17.17;;;;;;;5.69;100.00;102317.59;4918789;29;20410;-72
2022/03/26 01:23:09;;;;;;;28.67;17.25;;;;;;;5.59;100.00;102330.28;4905086;29;20056;-75
2022/03/26 01:25:55;;;;;;;26.02;16.67;;;;;;;5.38;100.00;102327.94;4918751;29;20063;-75
2022/03/26 01:28:41;;;;;;;25.00;15.85;;;;;;;5.44;100.00;102336.81;4904895;29;20059;-73
2022/03/26 01:31:27;;;;;;;26.45;17.15;;;;;;;5.64;100.00;102331.28;4905465;29;20361;-74
2022/03/26 01:34:13;;;;;;;25.42;16.63;;;;;;;5.43;100.00;102331.59;4918906;29;20028;-73
2022/03/26 01:36:58;;;;;;;27.92;16.90;;;;;;;5.66;100.00;102324.44;4919550;29;20353;-74
2022/03/26 01:39:45;;;;;;;26.42;16.15;;;;;;;5.59;100.00;102338.97;4918965;29;20441;-74
2022/03/26 01:42:31;;;;;;;29.00;18.20;;;;;;;5.63;100.00;102339.94;4905056;29;20122;-74
2022/03/26 01:45:17;;;;;;;29.38;17.52;;;;;;;5.64;100.00;102339.09;4904611;29;20032;-75
2022/03/26 01:48:03;;;;;;;30.50;17.55;;;;;;;5.63;100.00;102355.53;4919047;29;20094;-74
2022/03/26 01:50:49;;;;;;;30.65;19.05;;;;;;;5.21;100.00;102356.06;4921459;29;20028;-74
2022/03/26 01:53:34;;;;;;;30.45;18.35;;;;;;;5.35;100.00;102356.47;4908910;29;20042;-74
2022/03/26 01:56:21;;;;;;;28.95;17.50;;;;;;;4.88;100.00;102352.44;4922643;29;20036;-74
2022/03/26 01:59:08;;;;;;;26.33;17.15;;;;;;;5.37;100.00;102359.97;4922204;29;20036;-74
2022/03/26 02:01:54;;;;;;;28.33;17.15;;;;;;;5.48;100.00;102355.97;4922221;29;20031;-74
2022/03/26 02:04:39;;;;;;;29.33;17.27;;;;;;;5.22;100.00;102352.59;4922038;29;20034;-74
2022/03/26 02:07:25;;;;;;;29.77;18.20;;;;;;;5.30;100.00;102358.03;4922071;29;20032;-73
2022/03/26 02:10:14;;;;;;;28.10;17.77;;;;;;;5.52;100.00;102359.53;4932856;29;20059;-73
2022/03/26 02:12:59;;;;;;;30.08;17.30;;;;;;;5.55;100.00;102360.53;4925133;29;20028;-75
2022/03/26 02:15:45;;;;;;;26.35;17.13;;;;;;;5.14;100.00;102358.41;4921750;29;20028;-74
2022/03/26 02:18:31;;;;;;;26.15;16.17;;;;;;;5.29;100.00;102354.56;4908540;29;20064;-72
2022/03/26 02:21:18;;;;;;;23.20;15.68;;;;;;;4.57;100.00;102354.88;4907842;29;20025;-73
2022/03/26 02:24:06;;;;;;;30.60;17.60;;;;;;;4.44;100.00;102352.72;4922312;29;20103;-73
2022/03/26 02:26:52;;;;;;;26.33;17.05;;;;;;;4.31;100.00;102360.88;4921783;29;20099;-73
2022/03/26 02:29:37;;;;;;;27.95;17.35;;;;;;;4.65;100.00;102366.38;4921975;29;20028;-73
2022/03/26 02:32:27;;;;;;;28.83;17.08;;;;;;;4.97;100.00;102370.00;4895103;29;20075;-73
2022/03/26 02:35:13;;;;;;;29.92;16.85;;;;;;;4.67;100.00;102361.25;4922311;29;20032;-74
2022/03/26 02:37:59;;;;;;;28.05;16.98;;;;;;;4.16;100.00;102362.97;4921512;29;20175;-73
2022/03/26 02:40:47;;;;;;;30.55;17.95;;;;;;;4.11;100.00;102369.69;4921809;29;20032;-75
2022/03/26 02:43:34;;;;;;;30.60;18.90;;;;;;;4.31;100.00;102367.81;4921304;29;20035;-74
2022/03/26 02:46:20;;;;;;;30.48;17.70;;;;;;;4.48;100.00;102377.03;4921923;29;20076;-72
2022/03/26 02:49:06;;;;;;;28.90;17.80;;;;;;;4.83;100.00;102377.34;4921835;29;20370;-73
2022/03/26 02:51:52;;;;;;;28.38;17.63;;;;;;;4.38;100.00;102377.56;4921220;29;20028;-73
2022/03/26 02:54:38;;;;;;;28.08;16.77;;;;;;;4.41;100.00;102375.94;4921392;29;20028;-73
2022/03/26 02:57:25;;;;;;;25.83;16.30;;;;;;;4.66;100.00;102378.53;4921049;29;20536;-73
2022/03/26 03:00:13;;;;;;;30.48;18.92;;;;;;;4.42;100.00;102375.13;4921214;29;20047;-74
2022/03/26 03:03:00;;;;;;;28.13;16.67;;;;;;;4.26;100.00;102385.81;4920502;29;20063;-73
2022/03/26 03:05:48;;;;;;;31.75;17.75;;;;;;;4.00;100.00;102378.84;4907628;29;20038;-74
2022/03/26 03:08:34;;;;;;;28.70;17.30;;;;;;;4.45;100.00;102377.81;4907811;29;20032;-74
2022/03/26 03:11:20;;;;;;;27.33;16.60;;;;;;;4.38;100.00;102380.16;4921862;29;20041;-75
2022/03/26 03:14:06;;;;;;;30.60;17.75;;;;;;;4.56;100.00;102384.25;4907095;29;20051;-73
2022/03/26 03:16:52;;;;;;;32.22;17.88;;;;;;;3.85;100.00;102380.88;4920763;29;20040;-74
2022/03/26 03:19:38;;;;;;;28.40;16.77;;;;;;;4.13;100.00;102369.75;4907573;29;20035;-74
2022/03/26 03:22:23;;;;;;;26.83;16.75;;;;;;;4.15;100.00;102376.75;4920422;29;20023;-74
2022/03/26 03:25:10;;;;;;;27.95;16.98;;;;;;;4.29;100.00;102379.84;4920833;29;20028;-74
2022/03/26 03:27:57;;;;;;;28.15;16.58;;;;;;;4.24;100.00;102382.28;4906697;29;20028;-74
2022/03/26 03:30:43;;;;;;;30.08;17.58;;;;;;;4.14;100.00;102384.50;4907217;29;20365;-74
2022/03/26 03:33:29;;;;;;;32.88;16.63;;;;;;;4.23;100.00;102382.22;4920241;29;20020;-74
2022/03/26 03:36:15;;;;;;;31.65;16.73;;;;;;;4.51;100.00;102378.00;4907139;29;20043;-74
2022/03/26 03:39:00;;;;;;;33.35;17.15;;;;;;;4.30;100.00;102379.88;4919768;29;20038;-73
2022/03/26 03:41:46;;;;;;;27.30;16.42;;;;;;;4.42;100.00;102382.91;4921294;29;20063;-75
2022/03/26 03:44:32;;;;;;;29.20;17.27;;;;;;;4.51;100.00;102385.78;4920073;29;20035;-74
2022/03/26 03:47:17;;;;;;;27.15;16.35;;;;;;;4.21;100.00;102383.88;4907496;29;20044;-74
2022/03/26 03:50:07;;;;;;;27.02;16.80;;;;;;;4.30;100.00;102381.63;4920966;29;20024;-74
2022/03/26 03:52:53;;;;;;;30.95;18.13;;;;;;;4.57;100.00;102380.81;4919277;29;20035;-73
2022/03/26 03:55:39;;;;;;;26.40;16.77;;;;;;;4.91;100.00;102391.44;4920203;29;20118;-73
2022/03/26 03:58:24;;;;;;;28.98;17.23;;;;;;;4.90;100.00;102388.81;4906896;29;20028;-74
2022/03/26 04:01:10;;;;;;;28.25;17.48;;;;;;;4.89;100.00;102392.25;4920172;29;20099;-73
2022/03/26 04:03:56;;;;;;;28.23;16.40;;;;;;;4.45;100.00;102390.78;4919264;29;20035;-73
2022/03/26 04:06:41;;;;;;;29.85;18.33;;;;;;;4.01;100.00;102388.38;4920332;29;20068;-74
2022/03/26 04:09:27;;;;;;;30.52;17.88;;;;;;;3.81;100.00;102394.56;4919658;29;20172;-74
2022/03/26 04:12:13;;;;;;;31.52;18.02;;;;;;;3.71;100.00;102395.06;4905689;29;20346;-74
2022/03/26 04:14:59;;;;;;;29.77;17.77;;;;;;;3.73;100.00;102397.69;4919355;29;20119;-73
2022/03/26 04:17:45;;;;;;;34.65;19.23;;;;;;;3.69;100.00;102401.88;4905936;29;20032;-73
2022/03/26 04:20:31;;;;;;;33.72;19.27;;;;;;;3.68;100.00;102392.34;4919628;29;20047;-74
2022/03/26 04:23:18;;;;;;;33.83;18.48;;;;;;;3.71;100.00;102408.03;4920043;29;20469;-73
2022/03/26 04:26:04;;;;;;;36.80;22.25;;;;;;;3.85;100.00;102400.72;4919694;29;20071;-74
2022/03/26 04:28:50;;;;;;;33.28;19.42;;;;;;;3.87;100.00;102402.53;4919653;29;20095;-74
2022/03/26 04:31:35;;;;;;;30.50;18.38;;;;;;;3.72;100.00;102407.19;4905455;29;20032;-74
2022/03/26 04:34:21;;;;;;;31.30;19.00;;;;;;;3.80;100.00;102403.16;4920343;29;20114;-73
2022/03/26 04:37:07;;;;;;;33.80;19.30;;;;;;;3.67;100.00;102395.78;4919172;29;20102;-74
2022/03/26 04:39:53;;;;;;;34.05;19.15;;;;;;;3.85;100.00;102399.03;4919276;29;20115;-74
2022/03/26 04:42:40;;;;;;;37.70;20.08;;;;;;;3.64;100.00;102398.25;4919465;29;20032;-75
2022/03/26 04:45:26;;;;;;;34.40;19.83;;;;;;;3.77;100.00;102402.16;4919176;29;20028;-74
2022/03/26 04:48:13;;;;;;;37.50;19.83;;;;;;;3.82;100.00;102405.81;4919359;29;20103;-73
2022/03/26 04:50:59;;;;;;;36.90;19.92;;;;;;;3.76;100.00;102411.66;4911168;29;20047;-75
2022/03/26 04:53:44;;;;;;;34.03;20.15;;;;;;;3.74;100.00;102405.53;4923871;29;20028;-74
2022/03/26 04:56:30;;;;;;;34.78;19.23;;;;;;;3.73;100.00;102408.94;4919368;29;20024;-74
2022/03/26 04:59:16;;;;;;;35.20;20.15;;;;;;;3.75;100.00;102401.22;4919963;29;20107;-74
2022/03/26 05:02:02;;;;;;;31.13;19.15;;;;;;;3.87;100.00;102402.53;4918939;29;20122;-74
2022/03/26 05:04:48;;;;;;;35.88;19.73;;;;;;;3.91;100.00;102408.75;4919313;29;20032;-74
2022/03/26 05:07:46;;;;;;;42.67;21.05;;;;;;;3.93;100.00;102412.25;4919805;29;20047;-75
2022/03/26 05:10:32;;;;;;;36.05;21.15;;;;;;;4.00;100.00;102419.44;4919216;29;20047;-74
2022/03/26 05:13:17;;;;;;;39.05;21.42;;;;;;;3.87;100.00;102420.69;4918728;29;20048;-74
2022/03/26 05:16:04;;;;;;;38.08;21.15;;;;;;;4.17;100.00;102415.72;4905607;29;20040;-74
2022/03/26 05:18:50;;;;;;;38.95;20.13;;;;;;;4.28;100.00;102409.22;4919126;29;20032;-75
2022/03/26 05:21:37;;;;;;;33.60;20.73;;;;;;;4.34;100.00;102412.88;4918697;29;20501;-74
2022/03/26 05:24:23;;;;;;;35.28;19.58;;;;;;;4.50;100.00;102411.69;4918722;29;20183;-74
2022/03/26 05:27:09;;;;;;;37.80;20.67;;;;;;;4.51;100.00;102413.47;4904800;29;20099;-73
2022/03/26 05:29:55;;;;;;;36.88;19.90;;;;;;;4.27;100.00;102412.63;4918668;29;20028;-74
2022/03/26 05:32:41;;;;;;;38.75;19.63;;;;;;;4.46;100.00;102410.72;4918631;29;20035;-75
2022/03/26 05:35:27;;;;;;;37.78;19.02;;;;;;;4.56;100.00;102412.81;4919296;29;20325;-75
2022/03/26 05:38:13;;;;;;;39.03;19.63;;;;;;;4.72;100.00;102420.28;4918535;29;20032;-74
2022/03/26 05:40:59;;;;;;;34.92;19.67;;;;;;;4.79;100.00;102421.34;4918987;29;20024;-74
2022/03/26 05:43:45;;;;;;;39.53;20.33;;;;;;;4.73;100.00;102413.34;4918311;29;20355;-74
2022/03/26 05:46:30;;;;;;;35.03;20.35;;;;;;;4.89;100.00;102416.50;4918704;29;20024;-74
2022/03/26 05:49:17;;;;;;;34.85;18.95;;;;;;;5.00;100.00;102416.84;4919125;29;20028;-75
2022/03/26 05:52:03;;;;;;;32.83;18.92;;;;;;;4.96;100.00;102415.88;4918426;29;20365;-74
2022/03/26 05:54:49;;;;;;;34.67;18.77;;;;;;;5.14;100.00;102410.34;4904574;29;20086;-74
2022/03/26 05:57:35;;;;;;;33.75;18.75;;;;;;;5.22;100.00;102419.28;4918174;29;20027;-75
2022/03/26 06:00:21;;;;;;;31.95;19.00;;;;;;;5.47;100.00;102416.63;4918422;29;20134;-73
2022/03/26 06:03:07;;;;;;;35.13;19.58;;;;;;;5.65;100.00;102419.75;4918181;29;20054;-73
2022/03/26 06:05:53;;;;;;;36.03;19.77;;;;;;;5.68;100.00;102413.75;4918790;29;20095;-72
2022/03/26 06:08:39;;;;;;;32.83;19.63;;;;;;;5.73;100.00;102419.94;4918980;29;20331;-73
2022/03/26 06:11:25;;;;;;;32.17;19.00;;;;;;;6.28;100.00;102418.09;4919593;29;20103;-73
2022/03/26 06:14:11;;;;;;;34.53;18.95;;;;;;;5.90;100.00;102426.59;4917979;29;20052;-74
2022/03/26 06:16:58;;;;;;;31.90;19.08;;;;;;;5.79;100.00;102418.41;4918025;29;20043;-73
2022/03/26 06:19:44;;;;;;;31.85;19.15;;;;;;;5.99;100.00;102430.31;4917864;29;20024;-74
2022/03/26 06:22:30;;;;;;;28.90;18.70;;;;;;;6.06;100.00;102439.19;4918208;29;20028;-74
2022/03/26 06:25:16;;;;;;;31.20;18.90;;;;;;;6.04;100.00;102433.03;4917944;29;20167;-74
2022/03/26 06:28:01;;;;;;;29.95;18.10;;;;;;;6.16;100.00;102436.88;4918097;29;20028;-73
2022/03/26 06:30:48;;;;;;;29.17;18.55;;;;;;;6.24;100.00;102434.47;4905588;29;20028;-73
2022/03/26 06:33:34;;;;;;;29.75;18.17;;;;;;;6.35;100.00;102438.25;4918511;29;20445;-72
2022/03/26 06:36:21;;;;;;;28.77;17.45;;;;;;;6.47;100.00;102436.84;4905687;29;20361;-73
2022/03/26 06:39:07;;;;;;;29.85;17.67;;;;;;;6.52;100.00;102430.06;4921328;29;20047;-72
2022/03/26 06:41:53;;;;;;;27.60;17.92;;;;;;;6.86;100.00;102431.78;4907794;29;20078;-74
2022/03/26 06:44:39;;;;;;;28.30;17.75;;;;;;;6.74;100.00;102439.28;4920713;29;20024;-73
2022/03/26 06:47:28;;;;;;;26.70;17.05;;;;;;;6.98;100.00;102439.88;4921514;29;20046;-74
2022/03/26 06:50:14;;;;;;;32.17;17.63;;;;;;;7.08;100.00;102439.28;4920555;29;20050;-74
2022/03/26 06:52:59;;;;;;;30.33;18.65;;;;;;;7.34;100.00;102441.66;4921452;29;20449;-73
2022/03/26 06:55:46;;;;;;;30.20;17.17;;;;;;;7.31;100.00;102438.09;4921656;29;20028;-73
2022/03/26 06:58:32;;;;;;;33.15;18.25;;;;;;;7.77;100.00;102443.47;4921176;29;20024;-72
2022/03/26 07:01:18;;;;;;;34.40;17.95;;;;;;;7.77;100.00;102446.97;4921697;29;20059;-72
2022/03/26 07:04:04;;;;;;;35.47;19.40;;;;;;;7.47;100.00;102451.50;4907190;29;20035;-71
2022/03/26 07:06:49;;;;;;;31.67;18.60;;;;;;;7.33;100.00;102458.16;4907415;29;20051;-72
2022/03/26 07:09:36;;;;;;;30.35;17.80;;;;;;;7.30;100.00;102454.56;4921102;29;20038;-73
2022/03/26 07:12:22;;;;;;;32.90;18.65;;;;;;;7.79;100.00;102452.22;4921372;29;20028;-73
2022/03/26 07:15:08;;;;;;;34.97;19.23;;;;;;;8.21;100.00;102451.41;4920772;29;20044;-72
2022/03/26 07:17:54;;;;;;;29.25;17.10;;;;;;;8.13;100.00;102447.75;4921448;29;20087;-72
2022/03/26 07:20:39;;;;;;;23.67;15.15;;;;;;;8.26;100.00;102447.16;4920823;29;20092;-73
2022/03/26 07:23:25;;;;;;;21.27;14.35;;;;;;;8.43;100.00;102448.34;4920733;29;20115;-72
2022/03/26 07:26:11;;;;;;;22.92;14.77;;;;;;;8.21;100.00;102440.97;4907612;29;20048;-73
2022/03/26 07:28:57;;;;;;;24.50;15.13;;;;;;;8.89;100.00;102448.31;4920949;29;20024;-73
2022/03/26 07:31:42;;;;;;;22.10;14.90;;;;;;;8.85;100.00;102451.72;4921129;29;20043;-72
2022/03/26 07:34:28;;;;;;;21.17;14.00;;;;;;;8.86;100.00;102447.38;4926990;29;20068;-73
2022/03/26 07:37:14;;;;;;;23.45;14.93;;;;;;;9.07;100.00;102446.00;4908164;29;20032;-73
2022/03/26 07:40:00;;;;;;;22.23;13.77;;;;;;;9.41;100.00;102448.25;4921146;29;20028;-74
2022/03/26 07:42:46;;;;;;;22.20;14.88;;;;;;;9.57;99.33;102441.53;4920517;29;20043;-73
2022/03/26 07:45:32;;;;;;;22.75;14.13;;;;;;;9.32;100.00;102449.88;4920331;29;20028;-73
2022/03/26 07:48:17;;;;;;;20.83;13.30;;;;;;;9.98;95.79;102435.97;4920410;29;20032;-73
2022/03/26 07:51:03;;;;;;;21.60;13.35;;;;;;;10.53;89.60;102439.25;4919990;29;20107;-74
2022/03/26 07:53:49;;;;;;;20.10;13.15;;;;;;;10.18;91.35;102437.97;4919687;29;20469;-73
2022/03/26 07:56:35;;;;;;;19.85;12.85;;;;;;;10.00;92.95;102438.59;4920172;29;20032;-74
2022/03/26 07:59:20;;;;;;;20.13;13.38;;;;;;;10.30;88.92;102443.34;4920079;29;20437;-72
2022/03/26 08:02:06;;;;;;;20.63;13.00;;;;;;;10.13;91.29;102444.03;4920049;29;20107;-72
2022/03/26 08:04:52;;;;;;;20.75;13.27;;;;;;;10.66;87.60;102438.50;4920165;29;20341;-73
2022/03/26 08:07:38;;;;;;;22.08;13.93;;;;;;;11.12;82.06;102444.16;4906495;29;20110;-73
2022/03/26 08:10:24;;;;;;;19.65;13.75;;;;;;;11.29;81.21;102432.03;4920720;29;20461;-72
2022/03/26 08:13:09;;;;;;;24.40;14.05;;;;;;;11.11;80.42;102439.78;4920349;29;20079;-72
2022/03/26 08:15:55;;;;;;;22.30;13.85;;;;;;;10.82;83.39;102437.78;4919661;29;20123;-72
2022/03/26 08:18:41;;;;;;;28.80;14.48;;;;;;;10.84;81.98;102433.44;4920822;29;20032;-72
2022/03/26 08:21:27;;;;;;;22.58;13.55;;;;;;;11.76;78.09;102424.47;4920113;29;20492;-72
2022/03/26 08:24:13;;;;;;;21.60;13.90;;;;;;;11.25;78.35;102430.25;4919674;29;20028;-72
2022/03/26 08:26:59;;;;;;;20.33;12.88;;;;;;;12.14;74.82;102425.50;4919576;29;20031;-73
2022/03/26 08:29:46;;;;;;;19.30;13.25;;;;;;;12.47;69.76;102423.84;4919039;29;20111;-73
2022/03/26 08:32:32;;;;;;;21.38;13.63;;;;;;;12.42;71.75;102424.72;4919355;29;20417;-73
2022/03/26 08:35:17;;;;;;;17.83;12.32;;;;;;;13.05;66.54;102422.16;4905807;29;20024;-72
2022/03/26 08:38:03;;;;;;;17.15;12.23;;;;;;;13.21;65.06;102416.00;4919507;29;20047;-72
2022/03/26 08:40:49;;;;;;;15.52;11.15;;;;;;;13.23;63.83;102412.47;4918916;29;20027;-73
2022/03/26 08:43:35;;;;;;;19.73;12.05;;;;;;;13.55;62.02;102408.03;4919417;29;20036;-73
2022/03/26 08:46:21;;;;;;;18.50;11.68;;;;;;;13.25;60.86;102410.72;4920071;29;20047;-72
2022/03/26 08:49:07;;;;;;;17.80;12.15;;;;;;;13.98;59.42;102409.63;4919343;29;20469;-72
2022/03/26 08:51:52;;;;;;;17.45;11.75;;;;;;;13.78;59.78;102405.31;4918987;29;20179;-72
2022/03/26 08:54:38;;;;;;;18.77;11.07;;;;;;;13.53;58.72;102399.25;4905711;29;20052;-74
2022/03/26 08:57:24;;;;;;;20.30;11.45;;;;;;;13.51;57.62;102392.25;4918888;29;20028;-72
2022/03/26 09:00:13;;;;;;;16.95;11.52;;;;;;;13.41;57.04;102382.59;4905150;29;20100;-73
2022/03/26 09:02:58;;;;;;;22.30;11.45;;;;;;;13.97;55.93;102384.16;4918867;29;20042;-72
2022/03/26 09:05:44;;;;;;;18.75;11.88;;;;;;;14.12;55.93;102386.69;4919227;29;20346;-73
2022/03/26 09:08:30;;;;;;;17.95;11.82;;;;;;;14.06;56.23;102381.47;4918756;29;20338;-72
2022/03/26 09:11:16;;;;;;;19.05;12.32;;;;;;;14.45;54.28;102377.75;4919510;29;20056;-72
2022/03/26 09:14:02;;;;;;;28.15;13.20;;;;;;;14.40;54.10;102371.63;4918923;29;20080;-72
2022/03/26 09:16:48;;;;;;;19.13;12.40;;;;;;;14.40;53.70;102377.75;4919539;29;20047;-73
2022/03/26 09:19:34;;;;;;;17.50;11.43;;;;;;;13.59;55.21;102367.63;4919146;29;20036;-74
2022/03/26 09:22:19;;;;;;;16.67;11.63;;;;;;;14.12;54.57;102370.03;4918679;29;20028;-73
2022/03/26 09:25:06;;;;;;;15.50;10.80;;;;;;;14.36;53.09;102364.63;4918905;29;20465;-73
2022/03/26 09:27:51;;;;;;;17.13;10.75;;;;;;;14.05;53.63;102361.28;4918529;29;20036;-73
2022/03/26 09:30:37;;;;;;;17.92;11.38;;;;;;;13.91;53.11;102362.25;4919044;29;20036;-72
2022/03/26 09:33:23;;;;;;;15.52;11.38;;;;;;;14.27;51.76;102356.78;4918960;29;20042;-73
2022/03/26 09:36:10;;;;;;;18.10;10.93;;;;;;;14.49;51.70;102351.34;4918709;29;20470;-71
2022/03/26 09:38:55;;;;;;;16.48;11.07;;;;;;;14.63;51.30;102354.75;4919150;29;20032;-74
2022/03/26 09:41:42;;;;;;;13.80;10.02;;;;;;;14.65;49.45;102344.19;4918791;29;20083;-74
2022/03/26 09:44:31;;;;;;;14.75;10.45;;;;;;;15.00;49.12;102346.50;4918286;29;20171;-73
2022/03/26 09:47:17;;;;;;;14.10;10.50;;;;;;;14.70;48.37;102352.94;4918709;29;20024;-73
2022/03/26 09:50:06;;;;;;;13.23;10.27;;;;;;;14.78;47.87;102341.44;4918384;29;20060;-73
2022/03/26 09:52:52;;;;;;;20.08;10.73;;;;;;;14.51;47.58;102335.53;4918171;29;20120;-73
2022/03/26 09:55:40;;;;;;;12.82;9.38;;;;;;;14.76;46.01;102337.06;4904700;29;20036;-75
2022/03/26 09:58:25;;;;;;;14.90;10.05;;;;;;;15.05;46.34;102332.38;4918449;29;20024;-74
2022/03/26 10:01:11;;;;;;;14.90;9.75;;;;;;;15.12;46.78;102333.19;4919058;29;20051;-73
2022/03/26 10:04:13;;;;;;;14.77;9.57;;;;;;;15.02;44.26;102327.13;4918362;29;20346;-73
2022/03/26 10:06:59;;;;;;;19.83;11.27;;;;;;;15.13;44.23;102317.31;4919962;28;20031;-73
2022/03/26 10:09:46;;;;;;;13.25;10.25;;;;;;;15.25;43.73;102309.28;4918869;29;20028;-73
2022/03/26 10:12:32;;;;;;;15.20;9.20;;;;;;;15.11;43.39;102311.16;4936386;29;20032;-74
2022/03/26 10:15:18;;;;;;;14.90;8.93;;;;;;;15.11;43.80;102305.88;4922915;29;20142;-72
2022/03/26 10:18:10;;;;;;;15.57;8.88;;;;;;;15.26;42.49;102307.53;4922500;29;20077;-72
2022/03/26 10:20:58;;;;;;;17.58;10.02;;;;;;;15.49;42.33;102309.03;4922516;29;20115;-73
2022/03/26 10:23:51;;;;;;;13.25;8.77;;;;;;;15.69;42.29;102293.78;4922618;29;20028;-72
2022/03/26 10:26:37;;;;;;;22.42;9.98;;;;;;;15.42;41.96;102307.34;4908460;29;20036;-72
2022/03/26 10:29:22;;;;;;;13.40;9.45;;;;;;;15.91;41.76;102303.16;4908488;29;20098;-73
2022/03/26 10:35:19;;;;;;;14.82;9.50;;;;;;;16.09;41.02;102292.31;4921901;29;20040;-70
2022/03/26 10:38:05;;;;;;;14.43;9.10;;;;;;;16.11;41.89;102292.31;4907922;29;20043;-73
2022/03/26 10:40:58;;;;;;;14.05;9.50;;;;;;;15.90;42.07;102289.94;4922301;29;20044;-72
2022/03/26 10:43:44;;;;;;;15.05;9.35;;;;;;;16.33;41.96;102288.41;4922287;29;20028;-73
2022/03/26 10:46:30;;;;;;;16.92;9.32;;;;;;;16.49;41.27;102289.94;4921689;29;20529;-72
2022/03/26 10:49:30;;;;;;;19.83;10.02;;;;;;;16.09;41.06;102286.16;4921726;29;20425;-72
2022/03/26 10:52:17;;;;;;;15.70;9.23;;;;;;;15.45;41.78;102274.72;4921116;29;20175;-72
2022/03/26 10:55:12;;;;;;;12.63;9.68;;;;;;;15.91;41.52;102267.94;4921482;29;20043;-72
2022/03/26 10:58:01;;;;;;;14.07;9.82;;;;;;;16.22;41.71;102269.19;4921003;29;20096;-70
2022/03/26 11:00:47;;;;;;;15.63;9.07;;;;;;;16.39;41.86;102261.88;4921803;29;20087;-71
2022/03/26 11:03:35;;;;;;;16.98;9.43;;;;;;;16.68;40.88;102255.19;4921477;29;20126;-71
2022/03/26 11:06:25;;;;;;;12.88;9.20;;;;;;;16.76;40.53;102250.63;4910467;29;20052;-72
2022/03/26 11:09:11;;;;;;;12.30;8.93;;;;;;;16.90;39.85;102243.31;4921311;29;20373;-72
2022/03/26 11:11:58;;;;;;;12.73;9.40;;;;;;;17.20;39.50;102240.03;4921397;29;20056;-72
2022/03/26 11:14:47;;;;;;;15.50;9.65;;;;;;;17.22;39.80;102240.91;4921274;29;20127;-72
2022/03/26 11:18:06;;;;;;;13.57;9.90;;;;;;;17.57;39.17;102229.59;4922325;28;20052;-72
2022/03/26 11:20:54;;;;;;;12.05;9.27;;;;;;;17.34;38.66;102218.56;4920724;29;20457;-72
2022/03/26 11:23:58;;;;;;;11.55;8.80;;;;;;;17.65;38.88;102224.97;4906704;29;20043;-72
2022/03/26 11:27:03;;;;;;;13.77;9.68;;;;;;;17.36;38.78;102216.78;4921269;29;20064;-72
2022/03/26 11:29:56;;;;;;;13.85;10.15;;;;;;;17.11;38.71;102203.16;4921502;29;20028;-73
2022/03/26 11:32:44;;;;;;;16.80;10.13;;;;;;;17.43;38.72;102210.44;4920409;29;20465;-72
2022/03/26 11:35:32;;;;;;;15.25;9.25;;;;;;;17.57;38.56;102200.41;4907200;29;20346;-72
2022/03/26 11:38:18;;;;;;;15.00;8.98;;;;;;;17.66;38.15;102192.25;4920806;29;20039;-72
2022/03/26 11:41:08;;;;;;;12.50;9.20;;;;;;;18.18;37.94;102190.09;4920638;29;20110;-71
2022/03/26 11:43:55;;;;;;;13.18;9.55;;;;;;;18.02;38.31;102176.34;4920688;29;20024;-72
2022/03/26 11:52:53;;;;;;;22.00;10.45;;;;;;;17.90;36.44;102163.38;4920048;29;20365;-72
2022/03/26 11:55:47;;;;;;;13.50;9.45;;;;;;;18.13;36.08;102154.84;4920165;29;20039;-72
2022/03/26 11:58:33;;;;;;;14.00;9.35;;;;;;;17.90;37.03;102144.81;4920320;29;20350;-73
2022/03/26 12:01:20;;;;;;;12.40;8.85;;;;;;;18.45;36.25;102142.50;4907210;29;20035;-73
2022/03/26 12:04:18;;;;;;;13.52;9.10;;;;;;;17.90;36.04;102146.59;4906372;29;20031;-73
2022/03/26 12:07:04;;;;;;;13.07;9.30;;;;;;;18.18;36.42;102137.03;4920506;29;20459;-72
2022/03/26 12:10:04;;;;;;;14.98;8.95;;;;;;;18.19;36.08;102133.44;4919565;29;20163;-72
2022/03/26 12:12:56;;;;;;;16.85;9.50;;;;;;;18.44;35.06;102130.13;4920277;29;20036;-72
2022/03/26 12:15:58;;;;;;;12.77;9.70;;;;;;;17.64;35.81;102117.22;4906155;29;20058;-71
2022/03/26 12:18:44;;;;;;;12.93;9.52;;;;;;;17.89;36.05;102113.88;4920135;29;20146;-72
2022/03/26 12:21:30;;;;;;;13.18;8.95;;;;;;;18.09;35.34;102116.91;4919936;29;20376;-73
2022/03/26 12:24:17;;;;;;;14.63;8.82;;;;;;;18.23;35.08;102100.63;4919794;29;20055;-72
2022/03/26 12:27:05;;;;;;;16.15;9.65;;;;;;;18.40;35.02;102106.38;4919235;29;20040;-73
2022/03/26 12:29:55;;;;;;;14.23;9.18;;;;;;;18.55;35.19;102101.53;4906397;29;20446;-72
2022/03/26 12:32:42;;;;;;;13.80;9.60;;;;;;;18.59;35.12;102087.25;4919622;29;20052;-71
2022/03/26 12:35:28;;;;;;;14.70;9.48;;;;;;;18.56;35.01;102089.97;4920835;28;20034;-72
2022/03/26 12:38:15;;;;;;;13.68;10.30;;;;;;;17.85;35.93;102074.25;4919726;29;20039;-72
2022/03/26 12:41:07;;;;;;;15.10;9.98;;;;;;;17.61;36.71;102069.56;4919572;29;20040;-73
2022/03/26 12:43:58;;;;;;;16.92;9.85;;;;;;;17.76;37.07;102070.03;4919836;29;20059;-73
2022/03/26 12:46:45;;;;;;;17.10;10.00;;;;;;;17.87;37.29;102061.81;4919084;29;20032;-73
2022/03/26 12:49:38;;;;;;;16.55;10.27;;;;;;;18.14;36.52;102059.31;4906347;29;20044;-71